createdAt,value
2017-06-26T00:00:13.627Z,17.40
2017-06-26T00:02:42.136Z,17.40
2017-06-26T00:05:10.459Z,17.30
2017-06-26T00:07:38.755Z,17.40
2017-06-26T00:10:07.059Z,17.40
2017-06-26T00:12:35.337Z,17.40
2017-06-26T00:15:03.998Z,17.40
2017-06-26T00:17:32.274Z,17.30
2017-06-26T00:20:00.562Z,17.20
2017-06-26T00:22:28.839Z,17.00
2017-06-26T00:24:57.143Z,16.90
2017-06-26T00:27:26.195Z,16.80
2017-06-26T00:29:54.572Z,16.80
2017-06-26T00:32:22.956Z,16.70
2017-06-26T00:34:51.219Z,16.60
2017-06-26T00:37:20.267Z,16.60
2017-06-26T00:39:48.744Z,16.60
2017-06-26T00:42:17.131Z,16.70
2017-06-26T00:44:46.189Z,16.70
2017-06-26T00:47:14.473Z,16.70
2017-06-26T00:49:43.530Z,16.70
2017-06-26T00:52:11.807Z,16.60
2017-06-26T00:54:40.124Z,16.70
2017-06-26T00:57:08.391Z,16.70
2017-06-26T00:59:36.675Z,16.70
2017-06-26T01:02:04.959Z,16.60
2017-06-26T01:04:33.275Z,16.60
2017-06-26T01:07:01.527Z,16.60
2017-06-26T01:09:29.815Z,16.60
2017-06-26T01:11:58.131Z,16.60
2017-06-26T01:14:26.418Z,16.60
2017-06-26T01:16:54.692Z,16.60
2017-06-26T01:19:22.964Z,16.60
2017-06-26T01:21:51.355Z,16.60
2017-06-26T01:24:20.415Z,16.70
2017-06-26T01:26:48.686Z,16.70
2017-06-26T01:29:16.983Z,16.70
2017-06-26T01:31:45.282Z,16.70
2017-06-26T01:34:13.554Z,16.60
2017-06-26T01:36:41.844Z,16.60
2017-06-26T01:39:10.119Z,16.60
2017-06-26T01:41:39.167Z,16.60
2017-06-26T01:44:07.443Z,16.60
2017-06-26T01:46:36.522Z,16.60
2017-06-26T01:49:04.798Z,16.60
2017-06-26T01:51:33.838Z,16.60
2017-06-26T01:54:02.120Z,16.60
2017-06-26T01:56:30.467Z,16.60
2017-06-26T01:58:58.753Z,16.60
2017-06-26T02:01:27.246Z,16.60
2017-06-26T02:03:55.539Z,16.60
2017-06-26T02:06:23.829Z,16.60
2017-06-26T02:08:52.201Z,16.60
2017-06-26T02:11:20.489Z,16.60
2017-06-26T02:13:48.879Z,16.60
2017-06-26T02:16:17.323Z,16.60
2017-06-26T02:18:45.607Z,16.70
2017-06-26T02:21:13.891Z,16.60
2017-06-26T02:23:42.298Z,16.70
2017-06-26T02:26:11.347Z,16.60
2017-06-26T02:28:39.622Z,16.60
2017-06-26T02:31:07.911Z,16.60
2017-06-26T02:33:36.187Z,16.60
2017-06-26T02:36:04.475Z,16.70
2017-06-26T02:38:32.747Z,16.70
2017-06-26T02:41:01.043Z,16.70
2017-06-26T02:43:30.078Z,16.60
2017-06-26T02:45:58.766Z,16.60
2017-06-26T02:48:27.045Z,16.60
2017-06-26T02:50:55.429Z,16.70
2017-06-26T02:53:23.720Z,16.70
2017-06-26T02:55:52.112Z,16.70
2017-06-26T02:58:20.593Z,16.60
2017-06-26T03:00:49.343Z,16.70
2017-06-26T03:03:17.631Z,16.70
2017-06-26T03:05:46.275Z,16.70
2017-06-26T03:08:14.547Z,16.60
2017-06-26T03:10:42.838Z,16.60
2017-06-26T03:13:12.587Z,16.60
2017-06-26T03:15:41.675Z,16.60
2017-06-26T03:18:09.952Z,16.50
2017-06-26T03:20:38.342Z,16.50
2017-06-26T03:23:07.379Z,16.50
2017-06-26T03:25:35.788Z,16.50
2017-06-26T03:28:04.831Z,16.60
2017-06-26T03:30:33.107Z,16.50
2017-06-26T03:33:01.410Z,16.60
2017-06-26T03:35:29.708Z,16.60
2017-06-26T03:37:58.086Z,16.60
2017-06-26T03:40:26.351Z,16.50
2017-06-26T03:42:54.640Z,16.50
2017-06-26T03:45:22.995Z,16.50
2017-06-26T03:47:52.095Z,16.50
2017-06-26T03:50:20.551Z,16.50
2017-06-26T03:52:48.852Z,16.50
2017-06-26T03:55:17.133Z,16.50
2017-06-26T03:57:45.415Z,16.50
2017-06-26T04:00:13.707Z,16.50
2017-06-26T04:02:41.999Z,16.50
2017-06-26T04:05:10.314Z,16.50
2017-06-26T04:07:38.619Z,16.50
2017-06-26T04:10:06.915Z,16.50
2017-06-26T04:12:35.296Z,16.60
2017-06-26T04:15:03.568Z,16.70
2017-06-26T04:17:32.151Z,16.60
2017-06-26T04:20:00.528Z,16.60
2017-06-26T04:22:28.923Z,16.60
2017-06-26T04:24:57.202Z,16.60
2017-06-26T04:27:26.274Z,16.50
2017-06-26T04:29:54.581Z,16.50
2017-06-26T04:32:23.610Z,16.60
2017-06-26T04:34:52.179Z,16.60
2017-06-26T04:37:20.459Z,16.70
2017-06-26T04:39:49.505Z,16.80
2017-06-26T04:42:19.426Z,16.80
2017-06-26T04:44:47.698Z,16.70
2017-06-26T04:47:16.039Z,16.80
2017-06-26T04:49:44.318Z,16.90
2017-06-26T04:52:12.619Z,16.90
2017-06-26T04:54:40.915Z,16.90
2017-06-26T04:57:09.287Z,16.90
2017-06-26T04:59:37.581Z,16.90
2017-06-26T05:02:06.779Z,16.90
2017-06-26T05:04:35.055Z,16.90
2017-06-26T05:07:03.360Z,16.90
2017-06-26T05:09:31.634Z,17.00
2017-06-26T05:11:59.943Z,17.10
2017-06-26T05:14:28.223Z,17.20
2017-06-26T05:16:56.507Z,17.30
2017-06-26T05:19:24.787Z,17.30
2017-06-26T05:21:53.855Z,17.10
2017-06-26T05:24:22.267Z,17.10
2017-06-26T05:26:50.554Z,17.10
2017-06-26T05:29:18.915Z,17.00
2017-06-26T05:31:47.194Z,17.00
2017-06-26T05:34:15.480Z,17.10
2017-06-26T05:36:43.775Z,17.10
2017-06-26T05:39:12.087Z,17.10
2017-06-26T05:41:40.600Z,17.10
2017-06-26T05:44:10.970Z,17.10
2017-06-26T05:46:39.349Z,17.10
2017-06-26T05:49:07.630Z,17.20
2017-06-26T05:51:35.927Z,17.10
2017-06-26T05:54:04.291Z,17.00
2017-06-26T05:56:32.575Z,17.00
2017-06-26T05:59:00.870Z,17.10
2017-06-26T06:01:29.165Z,17.20
2017-06-26T06:03:57.463Z,17.20
2017-06-26T06:06:25.741Z,17.30
2017-06-26T06:08:54.127Z,17.30
2017-06-26T06:11:22.419Z,17.40
2017-06-26T06:13:50.723Z,17.40
2017-06-26T06:16:19.883Z,17.40
2017-06-26T06:18:48.183Z,17.40
2017-06-26T06:21:17.233Z,17.60
2017-06-26T06:23:45.526Z,17.60
2017-06-26T06:26:14.883Z,17.60
2017-06-26T06:28:43.975Z,17.50
2017-06-26T06:31:12.258Z,17.50
2017-06-26T06:33:40.594Z,17.40
2017-06-26T06:36:08.880Z,17.40
2017-06-26T06:38:37.971Z,17.40
2017-06-26T06:41:06.260Z,17.40
2017-06-26T06:43:34.687Z,17.40
2017-06-26T06:46:03.421Z,17.60
2017-06-26T06:48:31.745Z,17.60
2017-06-26T06:51:00.005Z,17.70
2017-06-26T06:53:28.326Z,17.70
2017-06-26T06:55:56.615Z,17.80
2017-06-26T06:58:25.680Z,18.10
2017-06-26T07:00:54.740Z,18.30
2017-06-26T07:03:23.040Z,18.30
2017-06-26T07:05:51.329Z,18.50
2017-06-26T07:08:19.649Z,18.30
2017-06-26T07:10:48.701Z,18.30
2017-06-26T07:13:17.105Z,18.30
2017-06-26T07:15:45.416Z,18.30
2017-06-26T07:18:13.695Z,18.20
2017-06-26T07:20:41.991Z,18.30
2017-06-26T07:23:10.298Z,18.30
2017-06-26T07:25:38.610Z,18.20
2017-06-26T07:28:06.896Z,18.20
2017-06-26T07:30:35.331Z,18.20
2017-06-26T07:33:04.386Z,18.30
2017-06-26T07:35:32.695Z,18.30
2017-06-26T07:38:01.003Z,18.40
2017-06-26T07:40:29.304Z,18.50
2017-06-26T07:42:57.583Z,18.50
2017-06-26T07:45:25.924Z,18.50
2017-06-26T07:47:54.978Z,18.10
2017-06-26T07:50:23.283Z,18.10
2017-06-26T07:52:51.574Z,17.90
2017-06-26T07:55:19.891Z,17.80
2017-06-26T07:57:48.275Z,17.60
2017-06-26T08:00:16.581Z,17.50
2017-06-26T08:02:44.896Z,17.20
2017-06-26T08:05:13.259Z,17.00
2017-06-26T08:07:41.567Z,16.90
2017-06-26T08:10:09.875Z,16.70
2017-06-26T08:12:38.219Z,16.60
2017-06-26T08:15:07.310Z,16.50
2017-06-26T08:17:36.354Z,16.60
2017-06-26T08:20:04.647Z,16.50
2017-06-26T08:22:33.004Z,16.80
2017-06-26T08:25:02.070Z,16.90
2017-06-26T08:27:30.558Z,16.90
2017-06-26T08:29:58.865Z,17.10
2017-06-26T08:32:27.224Z,17.30
2017-06-26T08:34:55.685Z,17.60
2017-06-26T08:37:24.725Z,17.80
2017-06-26T08:39:53.880Z,18.30
2017-06-26T08:42:22.159Z,18.30
2017-06-26T08:44:50.645Z,18.30
2017-06-26T08:47:18.999Z,18.00
2017-06-26T08:49:47.313Z,17.90
2017-06-26T08:52:15.595Z,18.00
2017-06-26T08:54:43.928Z,18.40
2017-06-26T08:57:12.231Z,18.70
2017-06-26T08:59:40.618Z,19.00
2017-06-26T09:02:08.898Z,19.30
2017-06-26T09:04:37.199Z,19.50
2017-06-26T09:07:05.529Z,19.50
2017-06-26T09:09:33.828Z,19.60
2017-06-26T09:12:02.120Z,19.70
2017-06-26T09:14:30.431Z,19.90
2017-06-26T09:16:58.732Z,20.10
2017-06-26T09:19:27.779Z,20.00
2017-06-26T09:21:56.077Z,20.00
2017-06-26T09:24:25.127Z,19.80
2017-06-26T09:26:53.426Z,19.80
2017-06-26T09:29:21.725Z,19.80
2017-06-26T09:31:50.023Z,19.70
2017-06-26T09:34:18.307Z,19.80
2017-06-26T09:36:47.384Z,20.00
2017-06-26T09:39:15.749Z,20.00
2017-06-26T09:41:44.027Z,20.40
2017-06-26T09:44:12.480Z,20.60
2017-06-26T09:46:41.554Z,20.80
2017-06-26T09:49:10.615Z,20.90
2017-06-26T09:51:38.917Z,20.90
2017-06-26T09:54:07.231Z,20.90
2017-06-26T09:56:35.523Z,20.90
2017-06-26T09:59:04.588Z,20.90
2017-06-26T10:01:33.085Z,20.80
2017-06-26T10:04:01.392Z,20.80
2017-06-26T10:06:31.546Z,20.70
2017-06-26T10:08:59.831Z,20.80
2017-06-26T10:11:28.246Z,20.60
2017-06-26T10:13:56.523Z,20.60
2017-06-26T10:16:25.588Z,20.60
2017-06-26T10:18:53.872Z,20.50
2017-06-26T10:21:22.936Z,21.20
2017-06-26T10:23:51.313Z,21.20
2017-06-26T10:26:20.373Z,21.30
2017-06-26T10:28:48.683Z,21.20
2017-06-26T10:31:17.120Z,21.00
2017-06-26T10:33:46.167Z,20.30
2017-06-26T10:36:14.485Z,20.30
2017-06-26T10:38:42.767Z,20.40
2017-06-26T10:41:11.160Z,20.60
2017-06-26T10:43:39.434Z,20.90
2017-06-26T10:46:08.510Z,21.30
2017-06-26T10:48:36.804Z,21.30
2017-06-26T10:51:05.147Z,21.30
2017-06-26T10:53:33.405Z,21.20
2017-06-26T10:56:02.459Z,21.20
2017-06-26T10:58:30.751Z,21.20
2017-06-26T11:00:59.806Z,21.00
2017-06-26T11:03:28.075Z,20.90
2017-06-26T11:05:56.375Z,21.00
2017-06-26T11:08:24.655Z,21.00
2017-06-26T11:10:52.957Z,21.00
2017-06-26T11:13:21.253Z,21.10
2017-06-26T11:15:49.639Z,21.20
2017-06-26T11:18:17.935Z,21.10
2017-06-26T11:20:46.219Z,21.20
2017-06-26T11:23:15.278Z,21.40
2017-06-26T11:25:43.584Z,21.40
2017-06-26T11:28:11.888Z,21.30
2017-06-26T11:30:40.162Z,21.10
2017-06-26T11:33:08.463Z,21.20
2017-06-26T11:35:36.755Z,21.40
2017-06-26T11:38:05.047Z,21.40
2017-06-26T11:40:33.326Z,21.40
2017-06-26T11:43:02.420Z,21.60
2017-06-26T11:45:31.475Z,21.40
2017-06-26T11:47:59.770Z,21.40
2017-06-26T11:50:28.059Z,21.50
2017-06-26T11:52:56.356Z,21.50
2017-06-26T11:55:24.680Z,21.70
2017-06-26T11:57:52.975Z,21.90
2017-06-26T12:00:21.504Z,21.80
2017-06-26T12:02:50.540Z,21.40
2017-06-26T12:05:18.820Z,21.40
2017-06-26T12:07:47.134Z,21.40
2017-06-26T12:10:15.544Z,21.50
2017-06-26T12:12:44.604Z,21.70
2017-06-26T12:15:12.879Z,21.70
2017-06-26T12:17:41.938Z,22.00
2017-06-26T12:20:10.220Z,22.00
2017-06-26T12:22:39.280Z,22.10
2017-06-26T12:25:07.864Z,22.10
2017-06-26T12:27:36.290Z,22.30
2017-06-26T12:30:04.543Z,22.20
2017-06-26T12:32:32.859Z,22.20
2017-06-26T12:35:01.905Z,22.20
2017-06-26T12:37:30.220Z,22.20
2017-06-26T12:39:58.567Z,22.20
2017-06-26T12:42:27.636Z,22.20
2017-06-26T12:44:56.051Z,22.20
2017-06-26T12:47:24.383Z,22.20
2017-06-26T12:49:52.671Z,22.20
2017-06-26T12:52:21.066Z,22.20
2017-06-26T12:54:49.350Z,22.40
2017-06-26T12:57:19.316Z,22.70
2017-06-26T12:59:47.599Z,22.70
2017-06-26T13:02:18.527Z,22.90
2017-06-26T13:04:47.527Z,22.90
2017-06-26T13:07:15.824Z,22.90
2017-06-26T13:09:44.138Z,23.20
2017-06-26T13:12:13.340Z,23.60
2017-06-26T13:14:41.618Z,23.50
2017-06-26T13:17:10.504Z,23.50
2017-06-26T13:19:38.840Z,23.40
2017-06-26T13:22:07.311Z,23.20
2017-06-26T13:24:35.611Z,23.20
2017-06-26T13:27:03.908Z,23.20
2017-06-26T13:29:32.303Z,23.00
2017-06-26T13:32:00.587Z,23.10
2017-06-26T13:34:28.905Z,22.90
2017-06-26T13:36:57.208Z,22.70
2017-06-26T13:39:25.494Z,22.60
2017-06-26T13:41:53.801Z,22.70
2017-06-26T13:44:22.775Z,22.80
2017-06-26T13:46:53.962Z,22.80
2017-06-26T13:49:22.455Z,22.70
2017-06-26T13:51:51.532Z,22.70
2017-06-26T13:54:19.923Z,22.70
2017-06-26T13:56:48.209Z,22.90
2017-06-26T13:59:16.551Z,23.10
2017-06-26T14:01:48.820Z,23.10
2017-06-26T14:04:17.111Z,23.20
2017-06-26T14:06:45.395Z,23.40
2017-06-26T14:09:14.422Z,23.70
2017-06-26T14:11:42.783Z,23.60
2017-06-26T14:14:11.112Z,23.40
2017-06-26T14:16:40.163Z,22.90
2017-06-26T14:19:09.231Z,22.90
2017-06-26T14:21:37.507Z,22.90
2017-06-26T14:24:05.815Z,23.20
2017-06-26T14:26:34.375Z,23.30
2017-06-26T14:29:02.843Z,23.50
2017-06-26T14:31:31.129Z,23.40
2017-06-26T14:34:00.259Z,23.60
2017-06-26T14:36:28.547Z,23.60
2017-06-26T14:38:56.994Z,23.60
2017-06-26T14:41:25.275Z,23.70
2017-06-26T14:43:54.331Z,23.90
2017-06-26T14:46:23.400Z,23.90
2017-06-26T14:48:51.703Z,23.80
2017-06-26T14:51:19.979Z,23.80
2017-06-26T14:53:48.285Z,23.80
2017-06-26T14:56:16.619Z,23.70
2017-06-26T14:58:44.965Z,23.60
2017-06-26T15:01:13.241Z,23.60
2017-06-26T15:03:41.555Z,23.60
2017-06-26T15:06:11.796Z,23.60
2017-06-26T15:08:40.320Z,23.60
2017-06-26T15:11:08.622Z,23.60
2017-06-26T15:13:36.949Z,23.70
2017-06-26T15:16:05.356Z,23.90
2017-06-26T15:18:34.151Z,24.00
2017-06-26T15:21:02.659Z,24.00
2017-06-26T15:23:31.391Z,24.00
2017-06-26T15:25:59.670Z,24.00
2017-06-26T15:28:28.163Z,24.00
2017-06-26T15:30:56.423Z,24.00
2017-06-26T15:33:25.463Z,24.00
2017-06-26T15:35:55.060Z,24.00
2017-06-26T15:38:25.283Z,24.10
2017-06-26T15:40:53.658Z,24.10
2017-06-26T15:43:22.146Z,24.10
2017-06-26T15:45:50.442Z,24.10
2017-06-26T15:48:18.723Z,24.20
2017-06-26T15:50:47.034Z,24.20
2017-06-26T15:53:15.663Z,24.40
2017-06-26T15:55:43.954Z,24.40
2017-06-26T15:58:13.070Z,24.80
2017-06-26T16:00:41.424Z,24.70
2017-06-26T16:03:11.142Z,24.90
2017-06-26T16:05:39.416Z,25.00
2017-06-26T16:08:07.695Z,24.90
2017-06-26T16:10:36.033Z,24.60
2017-06-26T16:13:05.320Z,24.60
2017-06-26T16:15:34.093Z,24.60
2017-06-26T16:18:02.375Z,24.60
2017-06-26T16:20:30.757Z,24.60
2017-06-26T16:22:59.027Z,24.60
2017-06-26T16:25:27.319Z,24.90
2017-06-26T16:27:55.655Z,25.20
2017-06-26T16:30:24.115Z,25.50
2017-06-26T16:32:53.164Z,25.30
2017-06-26T16:35:21.475Z,25.30
2017-06-26T16:37:49.989Z,25.20
2017-06-26T16:40:18.276Z,25.10
2017-06-26T16:42:46.645Z,25.20
2017-06-26T16:45:14.892Z,25.20
2017-06-26T16:47:43.200Z,25.20
2017-06-26T16:50:11.561Z,25.30
2017-06-26T16:52:40.598Z,25.20
2017-06-26T16:55:08.964Z,25.20
2017-06-26T16:57:37.275Z,25.50
2017-06-26T17:00:05.562Z,25.60
2017-06-26T17:02:33.915Z,25.60
2017-06-26T17:05:02.219Z,25.60
2017-06-26T17:07:30.495Z,25.60
2017-06-26T17:09:58.960Z,25.60
2017-06-26T17:12:27.251Z,25.60
2017-06-26T17:14:55.523Z,25.60
2017-06-26T17:17:24.661Z,25.80
2017-06-26T17:19:53.122Z,25.80
2017-06-26T17:22:22.288Z,25.50
2017-06-26T17:24:51.366Z,25.50
2017-06-26T17:27:19.959Z,25.50
2017-06-26T17:29:48.295Z,25.60
2017-06-26T17:32:16.678Z,25.60
2017-06-26T17:34:45.044Z,25.60
2017-06-26T17:37:13.895Z,25.60
2017-06-26T17:39:42.179Z,25.70
2017-06-26T17:42:11.275Z,25.70
2017-06-26T17:44:39.619Z,25.70
2017-06-26T17:47:07.947Z,25.60
2017-06-26T17:49:36.251Z,25.80
2017-06-26T17:52:05.296Z,25.80
2017-06-26T17:54:33.609Z,25.70
2017-06-26T17:57:01.883Z,25.90
2017-06-26T17:59:30.167Z,26.00
2017-06-26T18:01:58.539Z,26.00
2017-06-26T18:04:26.827Z,26.10
2017-06-26T18:06:55.531Z,26.00
2017-06-26T18:09:23.819Z,25.90
2017-06-26T18:11:52.098Z,26.00
2017-06-26T18:14:20.433Z,26.10
2017-06-26T18:16:48.742Z,26.00
2017-06-26T18:19:17.123Z,25.80
2017-06-26T18:21:46.171Z,25.80
2017-06-26T18:24:14.463Z,25.80
2017-06-26T18:26:42.743Z,25.60
2017-06-26T18:29:11.106Z,25.50
2017-06-26T18:31:39.391Z,25.40
2017-06-26T18:34:07.699Z,25.30
2017-06-26T18:36:35.971Z,25.10
2017-06-26T18:39:05.047Z,25.00
2017-06-26T18:41:33.298Z,24.90
2017-06-26T18:44:02.377Z,25.00
2017-06-26T18:46:30.782Z,25.00
2017-06-26T18:48:59.075Z,25.00
2017-06-26T18:51:27.469Z,24.90
2017-06-26T18:53:56.013Z,24.70
2017-06-26T18:56:24.288Z,24.40
2017-06-26T18:58:52.672Z,24.10
2017-06-26T19:01:21.827Z,23.60
2017-06-26T19:03:50.163Z,23.60
2017-06-26T19:06:18.486Z,23.40
2017-06-26T19:08:46.858Z,23.20
2017-06-26T19:11:15.142Z,23.00
2017-06-26T19:13:43.551Z,22.90
2017-06-26T19:16:11.861Z,22.80
2017-06-26T19:18:40.192Z,22.60
2017-06-26T19:21:09.011Z,22.50
2017-06-26T19:23:37.375Z,22.40
2017-06-26T19:26:05.654Z,22.30
2017-06-26T19:28:33.953Z,22.10
2017-06-26T19:31:03.002Z,21.90
2017-06-26T19:33:31.299Z,21.80
2017-06-26T19:35:59.583Z,21.70
2017-06-26T19:38:27.882Z,21.60
2017-06-26T19:40:57.970Z,21.50
2017-06-26T19:43:26.282Z,21.50
2017-06-26T19:45:54.778Z,21.40
2017-06-26T19:48:23.073Z,21.20
2017-06-26T19:50:51.359Z,21.20
2017-06-26T19:53:19.847Z,21.10
2017-06-26T19:55:48.141Z,21.00
2017-06-26T19:58:16.474Z,20.80
2017-06-26T20:00:44.758Z,20.70
2017-06-26T20:03:13.105Z,20.70
2017-06-26T20:05:42.212Z,20.50
2017-06-26T20:08:10.532Z,20.50
2017-06-26T20:10:38.870Z,20.50
2017-06-26T20:13:07.161Z,20.40
2017-06-26T20:15:36.212Z,20.20
2017-06-26T20:18:04.538Z,20.20
2017-06-26T20:20:32.893Z,20.10
2017-06-26T20:23:01.406Z,20.00
2017-06-26T20:25:29.705Z,20.00
2017-06-26T20:27:57.978Z,19.90
2017-06-26T20:30:27.475Z,19.90
2017-06-26T20:32:55.763Z,19.70
2017-06-26T20:35:24.051Z,19.70
2017-06-26T20:37:53.219Z,19.50
2017-06-26T20:40:21.516Z,19.60
2017-06-26T20:42:50.574Z,19.40
2017-06-26T20:45:19.037Z,19.40
2017-06-26T20:47:47.439Z,19.30
2017-06-26T20:50:15.823Z,19.20
2017-06-26T20:52:44.123Z,19.20
2017-06-26T20:55:12.418Z,19.10
2017-06-26T20:57:41.540Z,19.00
2017-06-26T21:00:10.267Z,19.00
2017-06-26T21:02:39.314Z,18.80
2017-06-26T21:05:07.603Z,18.80
2017-06-26T21:07:36.650Z,18.70
2017-06-26T21:10:04.984Z,18.70
2017-06-26T21:12:33.259Z,18.70
2017-06-26T21:15:01.550Z,18.60
2017-06-26T21:17:29.831Z,18.50
2017-06-26T21:19:58.259Z,18.50
2017-06-26T21:22:26.545Z,18.50
2017-06-26T21:24:54.843Z,18.40
2017-06-26T21:27:23.115Z,18.40
2017-06-26T21:29:51.402Z,18.40
2017-06-26T21:32:19.679Z,18.30
2017-06-26T21:34:47.971Z,18.30
2017-06-26T21:37:17.040Z,18.20
2017-06-26T21:39:45.339Z,18.20
2017-06-26T21:42:13.723Z,18.20
2017-06-26T21:44:42.011Z,18.10
2017-06-26T21:47:10.329Z,18.10
2017-06-26T21:49:38.767Z,18.10
2017-06-26T21:52:07.839Z,18.00
2017-06-26T21:54:36.879Z,17.90
2017-06-26T21:57:05.171Z,17.80
2017-06-26T21:59:34.333Z,17.80
2017-06-26T22:02:02.659Z,17.80
2017-06-26T22:04:30.958Z,17.80
2017-06-26T22:06:59.377Z,17.80
2017-06-26T22:09:27.698Z,17.70
2017-06-26T22:11:55.991Z,17.70
2017-06-26T22:14:24.267Z,17.60
2017-06-26T22:16:52.561Z,17.60
2017-06-26T22:19:20.839Z,17.50
2017-06-26T22:21:49.120Z,17.50
2017-06-26T22:24:18.174Z,17.40
2017-06-26T22:26:46.455Z,17.30
2017-06-26T22:29:15.511Z,17.30
2017-06-26T22:31:43.821Z,17.20
2017-06-26T22:34:12.579Z,17.30
2017-06-26T22:36:40.892Z,17.30
2017-06-26T22:39:09.174Z,17.20
2017-06-26T22:41:37.470Z,17.10
2017-06-26T22:44:05.925Z,17.10
2017-06-26T22:46:34.404Z,17.10
2017-06-26T22:49:03.451Z,17.10
2017-06-26T22:51:31.740Z,17.10
2017-06-26T22:54:00.022Z,17.10
2017-06-26T22:56:29.543Z,17.10
2017-06-26T22:58:57.815Z,17.10
2017-06-26T23:01:26.098Z,17.10
2017-06-26T23:03:54.375Z,17.10
2017-06-26T23:06:23.424Z,17.00
2017-06-26T23:08:51.704Z,16.90
2017-06-26T23:11:20.764Z,16.80
2017-06-26T23:13:49.035Z,16.80
2017-06-26T23:16:17.320Z,16.80
2017-06-26T23:18:46.359Z,16.80
2017-06-26T23:21:14.653Z,16.80
2017-06-26T23:23:43.688Z,16.70
2017-06-26T23:26:12.115Z,16.80
2017-06-26T23:28:41.156Z,16.70
2017-06-26T23:31:09.464Z,16.70
2017-06-26T23:33:37.748Z,16.60
2017-06-26T23:36:06.096Z,16.60
2017-06-26T23:38:34.358Z,16.50
2017-06-26T23:41:02.655Z,16.50
2017-06-26T23:43:30.935Z,16.50
2017-06-26T23:45:59.233Z,16.50
2017-06-26T23:48:28.263Z,16.50
2017-06-26T23:50:56.547Z,16.40
2017-06-26T23:53:24.844Z,16.40
2017-06-26T23:55:53.115Z,16.40
2017-06-26T23:58:21.427Z,16.40
